Time;durP1;ratioP1;P1;durP2;ratioP2;P2;SDS_P1;SDS_P2;PMS_P1;PMS_P2;Temp;Humidity;BMP_temperature;BMP_pressure;BME280_temperature;BME280_humidity;BME280_pressure;Samples;Min_cycle;Max_cycle;Signal;HPM_P1;HPM_P2
2022/05/23 00:01:54;;;;;;;2.92;2.63;;;18.40;55.50;;;;;;5119310;28;20420;-76
2022/05/23 00:04:22;;;;;;;3.17;2.30;;;18.30;55.60;;;;;;5122626;28;20873;-76
2022/05/23 00:06:49;;;;;;;2.60;2.40;;;18.30;55.70;;;;;;5123883;28;20434;-76
2022/05/23 00:09:16;;;;;;;5.18;2.78;;;18.20;55.10;;;;;;5124695;28;20485;-74
2022/05/23 00:11:43;;;;;;;2.90;2.60;;;18.20;56.20;;;;;;5149036;28;20414;-75
2022/05/23 00:14:11;;;;;;;3.20;2.90;;;18.10;55.80;;;;;;5146932;27;20436;-75
2022/05/23 00:16:44;;;;;;;3.40;2.20;;;18.10;55.20;;;;;;5157426;27;20414;-75
2022/05/23 00:19:12;;;;;;;2.78;2.35;;;18.10;55.70;;;;;;5148992;27;20418;-75
2022/05/23 00:21:42;;;;;;;2.90;2.60;;;18.10;56.20;;;;;;5156613;27;20414;-73
2022/05/23 00:24:09;;;;;;;4.20;2.80;;;18.00;57.00;;;;;;5153198;27;20411;-72
2022/05/23 00:26:36;;;;;;;3.10;2.30;;;18.00;56.60;;;;;;5149334;27;20414;-75
2022/05/23 00:29:04;;;;;;;3.88;2.47;;;18.00;56.60;;;;;;5149229;27;20446;-76
2022/05/23 00:31:30;;;;;;;2.90;2.60;;;18.00;56.80;;;;;;5149222;27;20422;-73
2022/05/23 00:36:43;;;;;;;2.70;2.50;;;17.90;56.20;;;;;;5128418;27;20553;-75
2022/05/23 00:39:10;;;;;;;3.25;2.65;;;17.90;56.40;;;;;;5125863;27;21042;-75
2022/05/23 00:44:27;;;;;;;3.38;2.25;;;17.80;56.20;;;;;;5113565;27;22020;-75
2022/05/23 00:46:56;;;;;;;3.38;2.40;;;17.80;56.60;;;;;;5105481;27;20423;-75
2022/05/23 00:49:25;;;;;;;2.60;2.40;;;17.80;56.90;;;;;;5109450;27;20428;-74
2022/05/23 00:51:56;;;;;;;2.83;2.30;;;17.80;57.20;;;;;;5111576;27;20419;-74
2022/05/23 00:54:23;;;;;;;3.28;2.20;;;17.80;57.10;;;;;;5113534;27;20432;-74
2022/05/23 00:56:53;;;;;;;2.53;2.33;;;17.80;58.10;;;;;;5122284;27;20437;-74
2022/05/23 00:59:23;;;;;;;2.88;2.58;;;17.80;57.70;;;;;;5129266;27;20463;-75
2022/05/23 01:01:50;;;;;;;3.10;2.50;;;17.80;56.50;;;;;;5129714;27;20422;-73
2022/05/23 01:04:16;;;;;;;2.90;2.47;;;17.80;57.50;;;;;;5133911;27;20426;-75
2022/05/23 01:06:43;;;;;;;2.97;2.53;;;17.90;56.40;;;;;;5132386;27;20452;-74
2022/05/23 01:09:12;;;;;;;4.13;2.88;;;17.90;57.10;;;;;;5129740;27;20460;-75
2022/05/23 01:11:40;;;;;;;2.88;2.40;;;17.90;57.30;;;;;;5133794;27;20419;-74
2022/05/23 01:14:07;;;;;;;4.17;2.23;;;17.90;56.80;;;;;;5147714;27;20572;-73
2022/05/23 01:16:34;;;;;;;2.43;2.23;;;17.90;56.80;;;;;;5133414;27;20422;-76
2022/05/23 01:19:00;;;;;;;3.25;2.30;;;17.90;56.50;;;;;;5141538;27;20431;-74
2022/05/23 01:21:35;;;;;;;2.60;2.40;;;17.90;56.70;;;;;;5131415;27;21233;-75
2022/05/23 01:24:12;;;;;;;3.60;2.90;;;17.90;56.20;;;;;;5121424;27;20528;-75
2022/05/23 01:26:40;;;;;;;4.18;2.53;;;17.90;56.70;;;;;;5127347;27;20429;-75
2022/05/23 01:29:11;;;;;;;4.03;2.27;;;17.90;56.40;;;;;;5128462;27;20483;-75
2022/05/23 01:31:38;;;;;;;3.55;2.47;;;17.80;56.50;;;;;;5127815;27;20424;-74
2022/05/23 01:34:05;;;;;;;2.50;2.28;;;17.80;57.10;;;;;;5129617;27;20449;-74
2022/05/23 01:36:31;;;;;;;3.28;2.20;;;17.80;57.30;;;;;;5126966;27;20805;-74
2022/05/23 01:38:58;;;;;;;3.28;2.45;;;17.80;56.80;;;;;;5132948;27;20432;-74
2022/05/23 01:41:25;;;;;;;2.90;2.40;;;17.80;56.50;;;;;;5140522;27;20426;-76
2022/05/23 01:43:53;;;;;;;4.38;2.70;;;17.80;56.30;;;;;;5122653;27;20483;-75
2022/05/23 01:46:20;;;;;;;3.30;3.00;;;17.80;56.60;;;;;;5128638;27;20426;-73
2022/05/23 01:48:47;;;;;;;2.90;2.60;;;17.70;56.20;;;;;;5122827;27;20532;-76
2022/05/23 01:51:14;;;;;;;2.95;2.40;;;17.80;55.40;;;;;;5126689;27;20842;-74
2022/05/23 01:53:41;;;;;;;3.55;2.67;;;17.80;55.80;;;;;;5125679;27;20487;-74
2022/05/23 01:56:09;;;;;;;3.70;2.58;;;17.70;57.10;;;;;;5135286;22;20965;-72
2022/05/23 02:01:25;;;;;;;4.97;2.70;;;17.70;56.90;;;;;;5101859;28;20933;-72
2022/05/23 02:03:52;;;;;;;3.47;3.00;;;17.70;56.80;;;;;;5096024;28;20467;-72
2022/05/23 02:06:19;;;;;;;4.50;2.97;;;17.70;57.80;;;;;;5090311;28;20430;-72
2022/05/23 02:08:46;;;;;;;3.60;2.80;;;17.70;57.00;;;;;;5082616;28;21027;-72
2022/05/23 02:11:13;;;;;;;3.55;2.70;;;17.70;56.00;;;;;;5078480;28;20433;-72
2022/05/23 02:13:41;;;;;;;3.60;3.00;;;17.70;56.60;;;;;;5081150;28;20438;-72
2022/05/23 02:16:08;;;;;;;3.20;2.90;;;17.70;56.50;;;;;;5080438;28;20511;-72
2022/05/23 02:18:36;;;;;;;3.50;2.78;;;17.70;56.60;;;;;;5079664;28;20965;-72
2022/05/23 02:21:03;;;;;;;3.08;2.70;;;17.70;56.00;;;;;;5080811;28;20463;-72
2022/05/23 02:23:30;;;;;;;4.00;2.85;;;17.60;56.50;;;;;;5079165;28;20910;-72
2022/05/23 02:25:56;;;;;;;3.50;2.58;;;17.60;56.60;;;;;;5080689;28;20429;-72
2022/05/23 02:28:23;;;;;;;4.28;3.10;;;17.60;56.40;;;;;;5079965;28;20495;-71
2022/05/23 02:30:50;;;;;;;3.95;2.92;;;17.60;56.40;;;;;;5078855;28;20729;-71
2022/05/23 02:33:17;;;;;;;4.10;3.00;;;17.60;56.80;;;;;;5080633;28;20481;-72
2022/05/23 02:35:45;;;;;;;3.80;3.00;;;17.60;56.80;;;;;;5082515;28;20434;-71
2022/05/23 02:38:11;;;;;;;3.90;2.72;;;17.50;56.90;;;;;;5078370;28;20455;-72
2022/05/23 02:40:38;;;;;;;3.17;2.85;;;17.50;57.00;;;;;;5081056;28;20511;-72
2022/05/23 02:43:05;;;;;;;3.13;2.93;;;17.50;57.10;;;;;;5081845;28;20432;-72
2022/05/23 02:45:31;;;;;;;3.50;3.20;;;17.50;57.20;;;;;;5081455;28;20893;-72
2022/05/23 02:47:58;;;;;;;2.80;2.60;;;17.40;57.20;;;;;;5082121;28;20986;-72
2022/05/23 02:50:25;;;;;;;3.30;3.00;;;17.40;57.80;;;;;;5081254;28;20511;-71
2022/05/23 02:52:53;;;;;;;3.85;2.85;;;17.40;58.30;;;;;;5079561;28;20456;-72
2022/05/23 02:55:20;;;;;;;4.70;3.10;;;17.40;58.40;;;;;;5081612;28;20887;-72
2022/05/23 02:57:46;;;;;;;3.57;3.10;;;17.40;57.80;;;;;;5080212;28;20540;-72
2022/05/23 03:00:14;;;;;;;3.65;3.08;;;17.40;58.00;;;;;;5081547;28;20434;-72
2022/05/23 03:05:25;;;;;;;4.07;3.00;;;17.40;57.60;;;;;;5078602;28;20503;-71
2022/05/23 03:07:53;;;;;;;3.50;2.80;;;17.40;57.30;;;;;;5079851;28;20433;-71
2022/05/23 03:10:20;;;;;;;4.20;3.00;;;17.40;58.40;;;;;;5087956;28;20547;-71
2022/05/23 03:12:46;;;;;;;3.60;2.70;;;17.40;58.10;;;;;;5078580;28;20502;-71
2022/05/23 03:15:13;;;;;;;4.40;2.90;;;17.40;58.00;;;;;;5079389;28;20526;-73
2022/05/23 03:17:40;;;;;;;2.90;2.60;;;17.40;57.90;;;;;;5076741;28;20576;-73
2022/05/23 03:20:08;;;;;;;3.50;3.05;;;17.40;57.80;;;;;;5074238;28;20497;-73
2022/05/23 03:28:05;;;;;;;4.18;2.78;;;17.40;57.40;;;;;;5079051;28;20452;-71
2022/05/23 03:30:33;;;;;;;3.30;3.00;;;17.40;58.20;;;;;;5080927;28;20506;-70
2022/05/23 03:33:00;;;;;;;3.85;2.72;;;17.30;57.80;;;;;;5079278;28;20434;-73
2022/05/23 03:35:29;;;;;;;3.30;2.90;;;17.40;57.90;;;;;;5076806;28;20506;-71
2022/05/23 03:37:56;;;;;;;4.10;3.13;;;17.30;58.20;;;;;;5079865;28;20482;-71
2022/05/23 03:40:24;;;;;;;3.90;2.88;;;17.30;58.00;;;;;;5074846;28;20536;-69
2022/05/23 03:42:51;;;;;;;4.20;2.90;;;17.30;58.80;;;;;;5080822;28;20456;-72
2022/05/23 03:45:17;;;;;;;3.72;2.90;;;17.40;57.90;;;;;;5081691;28;20429;-71
2022/05/23 03:47:44;;;;;;;4.13;2.80;;;17.40;58.10;;;;;;5081024;28;21180;-71
2022/05/23 03:50:11;;;;;;;4.38;3.25;;;17.30;58.50;;;;;;5091127;28;20417;-70
2022/05/23 03:52:38;;;;;;;3.10;2.80;;;17.30;58.50;;;;;;5082997;28;20478;-71
2022/05/23 03:55:06;;;;;;;4.55;3.05;;;17.30;58.50;;;;;;5083981;28;20498;-71
2022/05/23 03:57:34;;;;;;;4.68;3.20;;;17.40;58.90;;;;;;5080440;28;20430;-72
2022/05/23 04:00:01;;;;;;;4.78;3.00;;;17.40;58.70;;;;;;5080769;28;20433;-71
2022/05/23 04:02:28;;;;;;;5.00;3.30;;;17.30;58.90;;;;;;5077793;28;20510;-71
2022/05/23 04:04:55;;;;;;;4.40;3.10;;;17.40;58.60;;;;;;5077715;28;20429;-71
2022/05/23 04:07:21;;;;;;;4.50;3.50;;;17.30;59.00;;;;;;5080877;28;20425;-70
2022/05/23 04:09:48;;;;;;;4.20;3.20;;;17.30;59.00;;;;;;5082378;28;20441;-73
2022/05/23 04:12:14;;;;;;;4.53;3.72;;;17.30;59.70;;;;;;5081673;28;20486;-73
2022/05/23 04:14:42;;;;;;;5.45;3.80;;;17.30;58.90;;;;;;5079296;28;20478;-73
2022/05/23 04:17:10;;;;;;;7.10;3.70;;;17.30;58.70;;;;;;5079956;28;21797;-71
2022/05/23 04:19:36;;;;;;;5.85;3.70;;;17.40;58.50;;;;;;5077462;28;20516;-71
2022/05/23 04:22:04;;;;;;;6.15;3.80;;;17.40;58.70;;;;;;5080659;28;20923;-71
2022/05/23 04:24:31;;;;;;;4.50;3.77;;;17.40;58.80;;;;;;5076902;28;20438;-72
2022/05/23 04:26:58;;;;;;;5.03;3.35;;;17.40;58.80;;;;;;5080351;28;20422;-71
2022/05/23 04:29:25;;;;;;;4.05;3.50;;;17.40;58.70;;;;;;5081068;28;20859;-71
2022/05/23 04:31:53;;;;;;;5.25;3.70;;;17.40;59.30;;;;;;5082565;28;20456;-72
2022/05/23 04:37:05;;;;;;;3.20;2.90;;;17.50;58.10;;;;;;5074974;28;20532;-72
2022/05/23 04:39:32;;;;;;;4.38;3.20;;;17.50;57.80;;;;;;5076797;28;20433;-71
2022/05/23 04:42:00;;;;;;;5.15;3.70;;;17.60;58.00;;;;;;5076197;28;20797;-72
2022/05/23 04:44:27;;;;;;;5.30;3.72;;;17.50;58.90;;;;;;5072171;28;20450;-70
2022/05/23 04:49:50;;;;;;;4.68;3.38;;;17.50;58.40;;;;;;5073964;28;20422;-67
2022/05/23 04:52:22;;;;;;;4.10;2.97;;;17.60;58.20;;;;;;5078040;28;20455;-67
2022/05/23 04:54:49;;;;;;;4.43;3.60;;;17.50;58.40;;;;;;5076378;28;20440;-68
2022/05/23 04:57:16;;;;;;;5.10;3.50;;;17.60;58.40;;;;;;5074657;28;20438;-67
2022/05/23 04:59:44;;;;;;;4.20;3.80;;;17.50;58.40;;;;;;5081263;28;20457;-67
2022/05/23 05:02:12;;;;;;;5.85;3.70;;;17.50;58.40;;;;;;5082095;28;20498;-68
2022/05/23 05:04:39;;;;;;;3.40;3.10;;;17.40;58.70;;;;;;5074335;28;20428;-67
2022/05/23 05:07:06;;;;;;;5.50;2.90;;;17.40;58.90;;;;;;5079594;28;20478;-68
2022/05/23 05:09:32;;;;;;;3.35;3.05;;;17.40;58.70;;;;;;5077239;28;20874;-68
2022/05/23 05:11:59;;;;;;;5.43;3.03;;;17.40;58.70;;;;;;5080872;28;20486;-70
2022/05/23 05:14:27;;;;;;;4.28;2.85;;;17.50;58.60;;;;;;5072707;28;20506;-69
2022/05/23 05:16:54;;;;;;;3.20;2.90;;;17.50;58.40;;;;;;5074345;28;20429;-69
2022/05/23 05:19:22;;;;;;;3.50;2.72;;;17.50;58.30;;;;;;5075883;28;20452;-68
2022/05/23 05:21:49;;;;;;;4.55;3.35;;;17.50;58.80;;;;;;5072162;28;21359;-72
2022/05/23 05:24:17;;;;;;;4.10;3.05;;;17.50;58.40;;;;;;5070288;28;20559;-73
2022/05/23 05:26:44;;;;;;;3.67;3.00;;;17.50;58.80;;;;;;5072845;28;20743;-73
2022/05/23 05:29:11;;;;;;;5.10;3.28;;;17.50;58.80;;;;;;5076300;28;20514;-72
2022/05/23 05:31:43;;;;;;;3.90;2.90;;;17.50;58.60;;;;;;5084203;28;20502;-73
2022/05/23 05:34:13;;;;;;;3.92;3.10;;;17.60;58.80;;;;;;5079186;28;20933;-73
2022/05/23 05:36:46;;;;;;;3.38;2.72;;;17.60;58.60;;;;;;5075010;28;20431;-73
2022/05/23 05:39:14;;;;;;;3.65;2.90;;;17.60;59.00;;;;;;5078511;28;20442;-73
2022/05/23 05:41:45;;;;;;;4.80;3.30;;;17.60;58.50;;;;;;5082034;28;20426;-73
2022/05/23 05:44:18;;;;;;;4.28;2.90;;;17.70;58.60;;;;;;5075724;28;20844;-74
2022/05/23 05:46:50;;;;;;;5.35;3.30;;;17.80;58.40;;;;;;5079293;28;20515;-74
2022/05/23 05:49:20;;;;;;;3.43;3.00;;;17.80;59.70;;;;;;5080075;28;20498;-72
2022/05/23 05:51:50;;;;;;;3.20;2.90;;;17.90;57.60;;;;;;5080308;28;20438;-73
2022/05/23 05:54:21;;;;;;;3.92;3.15;;;18.00;57.60;;;;;;5080017;28;20987;-74
2022/05/23 05:56:48;;;;;;;3.42;2.63;;;18.00;58.00;;;;;;5083178;28;20492;-74
2022/05/23 05:59:15;;;;;;;3.97;2.80;;;18.00;57.50;;;;;;5077571;28;20482;-74
2022/05/23 06:01:42;;;;;;;3.88;2.90;;;18.10;57.50;;;;;;5081057;28;20422;-74
2022/05/23 06:04:09;;;;;;;3.25;2.83;;;18.20;57.40;;;;;;5065799;28;20415;-75
2022/05/23 06:12:06;;;;;;;3.25;2.60;;;18.40;56.90;;;;;;5087564;28;20419;-74
2022/05/23 06:14:33;;;;;;;3.50;3.20;;;18.50;55.90;;;;;;5080830;28;20466;-74
2022/05/23 06:16:59;;;;;;;4.00;3.60;;;18.50;56.00;;;;;;5075470;28;20518;-74
2022/05/23 06:19:26;;;;;;;6.15;2.50;;;18.50;56.20;;;;;;5080835;28;20634;-75
2022/05/23 06:21:53;;;;;;;4.22;2.88;;;18.50;56.40;;;;;;5080039;28;20430;-74
2022/05/23 06:24:21;;;;;;;5.90;2.97;;;18.60;56.20;;;;;;5081869;28;20482;-74
2022/05/23 06:26:47;;;;;;;3.83;2.72;;;18.60;55.90;;;;;;5073227;28;20681;-73
2022/05/23 06:29:14;;;;;;;4.45;2.80;;;18.70;56.00;;;;;;5077217;28;20936;-73
2022/05/23 06:31:41;;;;;;;3.97;2.80;;;18.90;56.00;;;;;;5084748;28;20439;-74
2022/05/23 06:34:08;;;;;;;5.00;3.00;;;19.00;55.80;;;;;;5076453;28;20593;-73
2022/05/23 06:36:36;;;;;;;3.80;2.50;;;19.20;54.50;;;;;;5077219;28;20483;-73
2022/05/23 06:39:04;;;;;;;3.03;2.58;;;19.30;54.30;;;;;;5068006;28;20422;-73
2022/05/23 06:41:32;;;;;;;4.05;2.80;;;19.30;54.10;;;;;;5062828;28;20500;-74
2022/05/23 06:43:59;;;;;;;3.25;2.90;;;19.30;53.70;;;;;;5082586;28;20437;-73
2022/05/23 06:46:25;;;;;;;3.00;2.70;;;19.30;53.90;;;;;;5078943;28;20495;-73
2022/05/23 06:48:52;;;;;;;3.92;2.50;;;19.20;53.70;;;;;;5081153;28;21175;-74
2022/05/23 06:51:18;;;;;;;3.45;2.58;;;19.10;53.90;;;;;;5075137;28;20453;-74
2022/05/23 06:53:46;;;;;;;2.90;2.70;;;19.10;54.20;;;;;;5079435;28;20566;-74
2022/05/23 06:56:13;;;;;;;3.13;2.65;;;19.00;55.40;;;;;;5075780;28;20490;-74
2022/05/23 06:58:41;;;;;;;3.00;2.60;;;18.90;55.60;;;;;;5081836;28;21019;-74
2022/05/23 07:01:08;;;;;;;3.05;2.75;;;18.90;55.00;;;;;;5074854;28;20569;-74
2022/05/23 07:03:35;;;;;;;4.43;2.85;;;18.80;55.40;;;;;;5081859;28;20425;-74
2022/05/23 07:14:21;;;;;;;4.30;3.00;;;18.80;56.50;;;;;;5071801;28;20429;-72
2022/05/23 07:16:48;;;;;;;3.25;2.80;;;18.90;56.10;;;;;;5073606;28;20427;-72
2022/05/23 07:19:15;;;;;;;4.72;2.40;;;18.90;56.30;;;;;;5077533;28;20426;-73
2022/05/23 07:21:42;;;;;;;3.28;2.97;;;18.90;56.10;;;;;;5080753;28;20422;-72
2022/05/23 07:24:08;;;;;;;2.90;2.60;;;18.90;56.30;;;;;;5082508;28;20478;-71
2022/05/23 07:26:37;;;;;;;5.97;3.03;;;18.90;56.10;;;;;;5083985;28;20495;-73
2022/05/23 07:29:04;;;;;;;3.30;2.80;;;18.90;56.30;;;;;;5083946;28;20437;-73
2022/05/23 07:31:32;;;;;;;4.50;2.58;;;18.80;56.80;;;;;;5084774;28;20461;-73
2022/05/23 07:33:59;;;;;;;3.78;2.58;;;18.90;57.10;;;;;;5080537;28;20536;-73
2022/05/23 07:36:26;;;;;;;2.93;2.70;;;19.00;56.60;;;;;;5087603;28;20527;-72
2022/05/23 07:38:53;;;;;;;2.60;2.40;;;19.00;56.10;;;;;;5081143;28;20518;-73
2022/05/23 07:41:20;;;;;;;3.45;2.80;;;19.20;56.00;;;;;;5077005;28;20912;-73
2022/05/23 07:43:46;;;;;;;2.97;2.55;;;19.20;56.20;;;;;;5080115;28;20411;-73
2022/05/23 07:46:15;;;;;;;4.40;2.90;;;19.30;56.20;;;;;;5079398;28;21286;-72
2022/05/23 07:48:45;;;;;;;3.70;2.70;;;19.30;56.10;;;;;;5082631;28;20436;-73
2022/05/23 07:51:13;;;;;;;3.38;2.35;;;19.40;55.50;;;;;;5077819;28;20430;-73
2022/05/23 08:01:54;;;;;;;3.22;2.42;;;19.70;54.50;;;;;;5079302;28;20428;-73
2022/05/23 08:04:22;;;;;;;3.47;2.50;;;19.80;54.10;;;;;;5082053;28;20514;-73
2022/05/23 08:06:49;;;;;;;3.30;2.60;;;19.90;54.40;;;;;;5081287;28;20491;-73
2022/05/23 08:09:17;;;;;;;3.90;2.58;;;19.90;53.00;;;;;;5081599;28;20520;-72
2022/05/23 08:11:47;;;;;;;4.63;2.63;;;19.80;53.90;;;;;;5083432;28;20516;-73
2022/05/23 08:14:15;;;;;;;2.95;2.60;;;19.80;53.90;;;;;;5083651;28;20436;-72
2022/05/23 08:16:42;;;;;;;3.95;2.70;;;19.80;53.90;;;;;;5084618;28;20532;-72
2022/05/23 08:19:09;;;;;;;5.53;2.80;;;19.90;54.50;;;;;;5080327;28;20431;-72
2022/05/23 08:21:44;;;;;;;2.90;2.60;;;20.00;54.20;;;;;;5084324;28;20426;-71
2022/05/23 08:24:11;;;;;;;4.57;2.70;;;20.10;54.30;;;;;;5071515;28;20406;-72
2022/05/23 08:26:38;;;;;;;5.30;3.20;;;20.20;54.00;;;;;;5084115;28;20513;-75
2022/05/23 08:29:04;;;;;;;3.13;2.80;;;20.30;53.40;;;;;;5077307;28;20448;-75
2022/05/23 08:31:31;;;;;;;3.33;2.80;;;20.40;53.70;;;;;;5075366;28;21277;-75
2022/05/23 08:33:58;;;;;;;4.50;2.70;;;20.50;53.30;;;;;;5083335;28;20537;-74
2022/05/23 08:36:25;;;;;;;4.05;3.00;;;20.50;52.90;;;;;;5084864;28;20433;-75
2022/05/23 08:38:53;;;;;;;2.70;2.42;;;20.60;53.10;;;;;;5087952;28;20409;-75
2022/05/23 08:41:24;;;;;;;3.72;2.55;;;20.80;52.20;;;;;;5080366;28;20528;-74
2022/05/23 08:43:53;;;;;;;3.20;2.80;;;20.90;51.60;;;;;;5081652;28;20530;-75
2022/05/23 08:46:26;;;;;;;3.25;2.72;;;20.80;52.20;;;;;;5070154;28;20450;-73
2022/05/23 08:49:03;;;;;;;2.70;2.50;;;20.90;52.40;;;;;;5085249;28;20430;-73
2022/05/23 08:51:37;;;;;;;3.90;2.70;;;20.80;52.90;;;;;;5080842;28;20434;-74
2022/05/23 08:54:15;;;;;;;3.00;2.33;;;20.90;52.20;;;;;;5076933;28;20443;-74
2022/05/23 08:56:46;;;;;;;3.27;2.63;;;20.90;53.00;;;;;;5077679;28;20434;-74
2022/05/23 08:59:20;;;;;;;5.33;3.20;;;21.00;52.10;;;;;;5083202;28;20506;-74
2022/05/23 09:01:50;;;;;;;3.08;2.50;;;21.10;52.20;;;;;;5078138;28;20475;-74
2022/05/23 09:04:32;;;;;;;3.50;2.50;;;21.30;52.40;;;;;;5078293;28;20429;-74
2022/05/23 09:07:01;;;;;;;4.78;2.60;;;21.60;52.00;;;;;;5075064;28;20478;-73
2022/05/23 09:09:31;;;;;;;5.43;2.53;;;21.90;50.70;;;;;;5098461;28;20408;-73
2022/05/23 09:12:05;;;;;;;2.85;2.30;;;22.10;50.20;;;;;;5067050;28;20937;-76
2022/05/23 09:14:32;;;;;;;2.47;2.25;;;22.50;49.90;;;;;;5079947;28;20473;-75
2022/05/23 09:16:59;;;;;;;3.40;2.40;;;22.80;48.70;;;;;;5071000;28;20430;-75
2022/05/23 09:19:31;;;;;;;2.58;2.17;;;23.10;46.90;;;;;;5083096;28;20807;-73
2022/05/23 09:22:13;;;;;;;3.13;2.17;;;23.30;46.50;;;;;;5079494;28;20429;-75
2022/05/23 09:24:43;;;;;;;3.88;2.10;;;23.40;46.20;;;;;;5080267;28;20939;-74
2022/05/23 09:27:16;;;;;;;2.88;1.92;;;23.80;45.50;;;;;;5078226;28;20431;-76
2022/05/23 09:29:43;;;;;;;3.53;2.20;;;24.10;44.60;;;;;;5081566;28;20463;-76
2022/05/23 09:32:13;;;;;;;1.90;1.80;;;24.30;44.20;;;;;;5075880;28;20453;-75
2022/05/23 09:34:46;;;;;;;2.05;1.85;;;24.40;43.90;;;;;;5080922;28;20429;-75
2022/05/23 09:37:19;;;;;;;3.00;1.90;;;24.20;43.30;;;;;;5080851;28;20459;-75
2022/05/23 09:39:54;;;;;;;2.70;2.40;;;23.90;44.50;;;;;;5078342;28;20406;-75
2022/05/23 09:48:09;;;;;;;3.90;2.30;;;24.20;43.60;;;;;;5070657;28;20533;-75
2022/05/23 09:50:38;;;;;;;3.53;2.10;;;23.90;44.70;;;;;;5075474;28;20454;-75
2022/05/23 09:53:06;;;;;;;2.53;2.20;;;23.60;45.30;;;;;;5077681;28;20429;-75
2022/05/23 09:55:37;;;;;;;3.47;2.40;;;23.60;45.80;;;;;;5079543;28;20902;-75
2022/05/23 09:58:07;;;;;;;2.43;2.00;;;23.60;46.00;;;;;;5079013;28;20484;-73
2022/05/23 10:00:36;;;;;;;2.20;2.00;;;23.60;45.80;;;;;;5080753;28;20489;-76
2022/05/23 10:03:06;;;;;;;2.88;2.28;;;23.50;46.20;;;;;;5082255;28;20422;-73
2022/05/23 10:05:35;;;;;;;3.08;2.20;;;23.50;46.70;;;;;;5078964;28;20837;-73
2022/05/23 10:08:04;;;;;;;2.30;1.80;;;23.50;47.40;;;;;;5079315;28;20544;-74
2022/05/23 10:10:34;;;;;;;3.20;2.10;;;23.60;46.80;;;;;;5084116;28;20421;-75
2022/05/23 10:13:18;;;;;;;2.88;2.17;;;23.60;46.30;;;;;;5083996;28;20507;-75
2022/05/23 10:15:47;;;;;;;2.60;2.30;;;24.00;45.70;;;;;;5081775;28;20891;-74
2022/05/23 10:18:20;;;;;;;4.07;1.93;;;24.40;44.90;;;;;;5079661;28;20425;-76
2022/05/23 10:20:47;;;;;;;2.53;1.90;;;25.10;44.20;;;;;;5083294;28;20498;-76
2022/05/23 10:23:17;;;;;;;3.30;1.70;;;25.60;42.10;;;;;;5073252;28;20485;-74
2022/05/23 10:25:53;;;;;;;3.40;2.00;;;25.80;41.70;;;;;;5079455;28;20744;-75
2022/05/23 10:28:28;;;;;;;5.32;2.20;;;25.40;42.30;;;;;;5083485;28;20434;-75
2022/05/23 10:30:59;;;;;;;2.30;2.00;;;25.00;43.70;;;;;;5073070;28;20925;-75
2022/05/23 10:33:29;;;;;;;2.20;1.70;;;25.10;43.90;;;;;;5083219;28;20469;-75
2022/05/23 10:36:02;;;;;;;2.20;1.63;;;25.20;43.90;;;;;;5070708;28;20506;-74
2022/05/23 10:44:32;;;;;;;4.30;1.90;;;25.30;43.30;;;;;;5039303;28;20420;-74
2022/05/23 10:47:08;;;;;;;3.20;2.15;;;25.20;44.00;;;;;;5031869;28;20518;-75
2022/05/23 10:49:42;;;;;;;3.53;2.03;;;25.30;43.90;;;;;;5060599;28;20479;-75
2022/05/23 10:52:14;;;;;;;2.15;1.80;;;25.30;44.10;;;;;;5081408;28;20823;-75
2022/05/23 10:54:56;;;;;;;2.70;1.92;;;25.30;44.40;;;;;;5083350;28;20766;-74
2022/05/23 10:57:47;;;;;;;2.10;1.88;;;25.40;44.40;;;;;;5080172;28;20433;-74
2022/05/23 11:00:18;;;;;;;3.00;2.20;;;25.20;45.10;;;;;;5079975;28;20433;-74
2022/05/23 11:02:55;;;;;;;3.45;1.90;;;25.30;45.80;;;;;;5078230;28;20447;-74
2022/05/23 11:05:28;;;;;;;2.33;2.10;;;25.40;45.80;;;;;;5079500;28;20410;-66
2022/05/23 11:08:09;;;;;;;2.75;2.03;;;25.50;44.10;;;;;;5081632;28;20421;-68
2022/05/23 11:10:43;;;;;;;3.70;2.20;;;25.40;45.10;;;;;;5082455;28;20414;-68
2022/05/23 11:13:28;;;;;;;2.85;2.17;;;25.30;45.30;;;;;;5077175;28;20507;-67
2022/05/23 11:16:11;;;;;;;3.27;2.30;;;25.30;45.40;;;;;;5082559;28;20976;-73
2022/05/23 11:18:48;;;;;;;3.08;2.40;;;25.20;45.90;;;;;;5080491;28;20850;-72
2022/05/23 11:21:22;;;;;;;5.93;2.90;;;25.30;45.90;;;;;;5078295;28;20426;-67
2022/05/23 11:23:54;;;;;;;4.85;2.70;;;25.10;46.00;;;;;;5078596;28;20518;-68
2022/05/23 11:26:24;;;;;;;2.60;2.40;;;24.90;47.10;;;;;;5080864;28;20418;-68
2022/05/23 11:34:32;;;;;;;4.38;2.45;;;24.60;48.80;;;;;;5074679;28;20484;-67
2022/05/23 11:37:42;;;;;;;3.20;2.33;;;24.70;48.80;;;;;;5075260;28;20438;-67
2022/05/23 11:39:58;;;;;;;3.38;2.70;;;24.90;48.80;;;;;;5074948;28;21276;-68
2022/05/23 11:42:30;;;;;;;3.25;2.70;;;25.10;48.50;;;;;;5075418;28;20902;-69
2022/05/23 11:48:00;;;;;;;4.55;3.15;;;25.20;47.60;;;;;;5072361;28;20479;-68
2022/05/23 11:50:30;;;;;;;2.72;2.50;;;25.30;47.50;;;;;;5071911;28;20438;-70
2022/05/23 11:53:10;;;;;;;2.80;2.40;;;25.40;47.70;;;;;;5074480;28;20457;-70
2022/05/23 11:56:07;;;;;;;4.18;2.50;;;25.30;47.80;;;;;;5075933;28;20804;-69
2022/05/23 11:58:48;;;;;;;4.25;2.78;;;25.10;48.30;;;;;;5074374;28;20950;-68
2022/05/23 12:01:26;;;;;;;4.40;3.00;;;24.90;49.50;;;;;;5075325;28;20510;-68
2022/05/23 12:04:18;;;;;;;3.40;2.63;;;24.90;49.70;;;;;;5072592;28;20434;-68
2022/05/23 12:06:45;;;;;;;3.95;2.80;;;24.80;49.50;;;;;;5073532;28;20438;-70
2022/05/23 12:09:39;;;;;;;2.60;2.40;;;24.70;49.70;;;;;;5080029;28;20486;-69
2022/05/23 12:12:47;;;;;;;3.83;2.50;;;24.50;50.80;;;;;;5042258;28;20440;-70
2022/05/23 12:15:52;;;;;;;2.80;2.55;;;24.60;51.00;;;;;;5068127;28;20433;-70
2022/05/23 12:18:36;;;;;;;2.75;2.33;;;24.60;50.90;;;;;;5080980;28;20448;-68
2022/05/23 12:21:07;;;;;;;2.55;2.10;;;24.60;51.10;;;;;;5079752;28;20450;-70
2022/05/23 12:23:38;;;;;;;2.58;2.20;;;24.50;51.20;;;;;;5083908;28;21014;-70
2022/05/23 12:26:18;;;;;;;2.65;2.45;;;24.60;51.50;;;;;;5076642;28;20899;-70
2022/05/23 12:28:46;;;;;;;2.60;2.40;;;24.60;51.00;;;;;;5088205;28;20505;-69
2022/05/23 12:31:16;;;;;;;3.58;2.72;;;24.60;51.20;;;;;;5084317;28;20986;-70
2022/05/23 12:33:53;;;;;;;3.03;2.50;;;24.60;51.40;;;;;;5082877;28;20494;-70
2022/05/23 12:36:24;;;;;;;3.45;2.45;;;24.50;51.70;;;;;;5085934;28;20796;-69
2022/05/23 12:39:30;;;;;;;4.13;2.30;;;24.50;52.00;;;;;;5083239;28;20735;-69
2022/05/23 12:42:06;;;;;;;6.20;2.58;;;24.50;52.30;;;;;;5080143;28;20499;-69
2022/05/23 12:45:10;;;;;;;2.60;2.40;;;24.50;52.30;;;;;;5080347;28;20447;-69
2022/05/23 12:48:01;;;;;;;2.80;2.50;;;24.40;52.10;;;;;;5081272;28;20504;-69
2022/05/23 12:50:44;;;;;;;3.22;2.50;;;24.30;52.40;;;;;;5074579;28;20424;-69
2022/05/23 12:53:28;;;;;;;2.50;2.30;;;24.30;53.20;;;;;;5078904;28;20860;-70
2022/05/23 12:56:07;;;;;;;4.10;2.67;;;24.20;52.80;;;;;;5075808;28;20426;-70
2022/05/23 12:59:11;;;;;;;4.00;2.60;;;24.10;53.80;;;;;;5081542;28;20901;-70
2022/05/23 13:01:43;;;;;;;4.00;2.50;;;24.00;53.90;;;;;;5073757;28;20423;-69
2022/05/23 13:04:13;;;;;;;3.70;2.58;;;24.00;54.40;;;;;;5080462;28;20418;-69
2022/05/23 13:06:55;;;;;;;4.07;2.70;;;23.90;54.50;;;;;;5080624;28;20870;-70
2022/05/23 13:09:30;;;;;;;3.10;2.60;;;23.80;54.80;;;;;;5080845;28;20425;-70
2022/05/23 13:12:02;;;;;;;5.20;2.97;;;23.80;55.30;;;;;;5079959;28;21156;-69
2022/05/23 13:14:47;;;;;;;5.55;2.85;;;23.80;54.90;;;;;;5081585;28;20485;-70
2022/05/23 13:17:29;;;;;;;5.00;2.90;;;23.70;56.50;;;;;;5073001;28;20471;-71
2022/05/23 13:22:41;;;;;;;8.15;4.75;;;23.10;66.60;;;;;;5080049;28;20946;-71
2022/05/23 13:25:08;;;;;;;7.23;5.30;;;21.60;76.90;;;;;;5079429;28;20523;-69
2022/05/23 13:27:43;;;;;;;6.20;5.60;;;20.60;83.40;;;;;;5074595;28;20424;-69
2022/05/23 13:30:21;;;;;;;8.27;5.72;;;19.90;87.90;;;;;;5079760;28;20421;-69
2022/05/23 13:33:01;;;;;;;6.80;6.05;;;19.50;90.20;;;;;;5078160;28;20918;-69
2022/05/23 13:35:28;;;;;;;8.30;7.50;;;19.30;91.10;;;;;;5085068;28;20462;-70
2022/05/23 13:37:56;;;;;;;8.57;7.80;;;19.20;91.80;;;;;;5071039;28;20442;-69
2022/05/23 13:40:27;;;;;;;8.80;7.70;;;19.20;92.10;;;;;;5076095;28;20443;-70
2022/05/23 13:43:09;;;;;;;9.43;8.50;;;19.20;92.60;;;;;;5073737;28;20421;-70
2022/05/23 13:45:39;;;;;;;8.35;7.10;;;19.30;92.80;;;;;;5065064;28;20499;-70
2022/05/23 13:48:09;;;;;;;9.35;8.55;;;19.30;92.50;;;;;;5078836;28;21029;-69
2022/05/23 13:50:43;;;;;;;9.48;8.48;;;19.40;92.60;;;;;;5071112;28;20541;-69
2022/05/23 13:53:16;;;;;;;10.52;9.48;;;19.50;92.80;;;;;;5071707;28;20467;-68
2022/05/23 13:55:46;;;;;;;11.85;10.65;;;19.60;93.20;;;;;;5080700;28;20452;-68
2022/05/23 13:58:17;;;;;;;11.48;10.30;;;19.90;93.80;;;;;;5074959;28;20442;-69
2022/05/23 14:00:52;;;;;;;11.48;10.32;;;20.40;94.40;;;;;;5079155;28;20479;-71
2022/05/23 14:03:23;;;;;;;8.43;7.63;;;21.00;94.50;;;;;;5077471;28;20426;-71
2022/05/23 14:05:53;;;;;;;8.27;7.37;;;21.40;93.70;;;;;;5080533;28;20418;-72
2022/05/23 14:08:33;;;;;;;5.72;5.22;;;21.80;93.00;;;;;;5079686;28;20921;-71
2022/05/23 14:11:07;;;;;;;6.53;5.93;;;22.20;90.60;;;;;;5079841;28;20433;-71